createdAt,value
2022-08-22T00:02:10.271Z,96641.91
2022-08-22T00:02:54.996Z,96609.16
2022-08-22T00:03:12.734Z,96609.17
2022-08-22T00:04:44.456Z,96640.58
2022-08-22T00:07:12.304Z,96642.23
2022-08-22T00:09:46.341Z,96637.77
2022-08-22T00:12:32.635Z,96639.40
2022-08-22T00:15:42.448Z,96635.95
2022-08-22T00:18:08.737Z,96633.45
2022-08-22T00:20:41.795Z,96629.14
2022-08-22T00:23:13.476Z,96625.08
2022-08-22T00:25:55.035Z,96624.58
2022-08-22T00:28:29.897Z,96624.91
2022-08-22T00:31:07.865Z,96625.84
2022-08-22T00:33:41.828Z,96625.61
2022-08-22T00:36:30.536Z,96623.80
2022-08-22T00:39:06.584Z,96620.75
2022-08-22T00:41:49.676Z,96620.11
2022-08-22T00:44:30.489Z,96619.89
2022-08-22T00:47:01.584Z,96618.63
2022-08-22T00:49:48.957Z,96619.02
2022-08-22T00:52:35.602Z,96624.41
2022-08-22T00:55:12.648Z,96625.27
2022-08-22T00:57:58.991Z,96632.63
2022-08-22T01:00:28.652Z,96633.95
2022-08-22T01:03:05.716Z,96633.65
2022-08-22T01:05:48.208Z,96635.20
2022-08-22T01:08:16.220Z,96631.66
2022-08-22T01:10:53.248Z,96629.91
2022-08-22T01:13:45.070Z,96631.16
2022-08-22T01:16:16.277Z,96632.73
2022-08-22T01:18:50.361Z,96639.14
2022-08-22T01:21:36.998Z,96644.30
2022-08-22T01:24:08.141Z,96649.96
2022-08-22T01:26:44.724Z,96656.61
2022-08-22T01:29:16.266Z,96659.11
2022-08-22T01:31:46.817Z,96655.82
2022-08-22T01:34:23.528Z,96655.27
2022-08-22T01:37:10.138Z,96655.20
2022-08-22T01:39:47.592Z,96651.60
2022-08-22T01:42:15.545Z,96653.73
2022-08-22T01:44:46.735Z,96653.90
2022-08-22T01:47:21.915Z,96648.75
2022-08-22T01:50:03.426Z,96640.38
2022-08-22T01:52:43.065Z,96640.30
2022-08-22T01:55:11.537Z,96633.65
2022-08-22T01:57:56.706Z,96632.08
2022-08-22T02:00:35.503Z,96630.52
2022-08-22T02:03:09.912Z,96643.61
2022-08-22T02:05:48.560Z,96643.28
2022-08-22T02:08:27.636Z,96639.23
2022-08-22T02:11:12.681Z,96635.71
2022-08-22T02:13:49.963Z,96630.06
2022-08-22T02:16:36.305Z,96619.34
2022-08-22T02:19:10.181Z,96611.89
2022-08-22T02:21:47.155Z,96614.80
2022-08-22T02:24:27.718Z,96611.66
2022-08-22T02:27:14.329Z,96611.66
2022-08-22T02:30:01.766Z,96612.99
2022-08-22T02:32:29.636Z,96619.96
2022-08-22T02:35:03.790Z,96623.41
2022-08-22T02:37:34.849Z,96626.69
2022-08-22T02:40:06.640Z,96632.57
2022-08-22T02:42:43.933Z,96635.39
2022-08-22T02:45:18.643Z,96634.38
2022-08-22T02:48:02.143Z,96635.95
2022-08-22T02:50:36.161Z,96638.92
2022-08-22T02:53:10.191Z,96647.23
2022-08-22T02:56:15.701Z,96654.81
2022-08-22T02:58:52.292Z,96653.25
2022-08-22T03:01:30.062Z,96650.83
2022-08-22T03:04:33.640Z,96646.83
2022-08-22T03:07:01.539Z,96647.84
2022-08-22T03:09:35.973Z,96649.88
2022-08-22T03:12:24.025Z,96649.41
2022-08-22T03:15:00.256Z,96646.53
2022-08-22T03:17:38.582Z,96647.95
2022-08-22T03:20:09.577Z,96651.61
2022-08-22T03:22:40.156Z,96657.40
2022-08-22T03:25:14.772Z,96658.89
2022-08-22T03:27:51.756Z,96663.28
2022-08-22T03:30:22.378Z,96667.52
2022-08-22T03:32:56.382Z,96667.98
2022-08-22T03:35:47.322Z,96667.28
2022-08-22T03:38:21.309Z,96666.02
2022-08-22T03:41:04.422Z,96665.86
2022-08-22T03:43:38.307Z,96661.09
2022-08-22T03:46:24.632Z,96655.92
2022-08-22T03:49:11.829Z,96658.66
2022-08-22T03:51:43.568Z,96663.67
2022-08-22T03:54:23.522Z,96665.47
2022-08-22T03:57:04.144Z,96665.95
2022-08-22T03:59:44.258Z,96662.26
2022-08-22T04:02:24.806Z,96663.20
2022-08-22T04:05:16.274Z,96659.21
2022-08-22T04:08:02.965Z,96657.96
2022-08-22T04:10:31.818Z,96664.23
2022-08-22T04:13:14.952Z,96667.84
2022-08-22T04:16:00.918Z,96666.35
2022-08-22T04:18:28.743Z,96668.94
2022-08-22T04:21:01.226Z,96667.94
2022-08-22T04:23:31.923Z,96664.48
2022-08-22T04:26:12.748Z,96660.96
2022-08-22T04:29:01.105Z,96654.54
2022-08-22T04:31:51.540Z,96651.09
2022-08-22T04:34:45.729Z,96653.75
2022-08-22T04:37:46.677Z,96653.36
2022-08-22T04:40:23.764Z,96655.64
2022-08-22T04:42:59.253Z,96659.71
2022-08-22T04:45:33.932Z,96658.84
2022-08-22T04:48:08.071Z,96662.78
2022-08-22T04:53:00.260Z,96670.30
2022-08-22T04:55:33.956Z,96675.47
2022-08-22T04:58:06.521Z,96680.48
2022-08-22T05:00:41.761Z,96681.41
2022-08-22T05:03:13.172Z,96683.21
2022-08-22T05:05:43.292Z,96686.50
2022-08-22T05:08:13.821Z,96690.66
2022-08-22T05:10:46.373Z,96699.14
2022-08-22T05:13:18.339Z,96704.95
2022-08-22T05:15:48.574Z,96708.94
2022-08-22T05:18:19.370Z,96712.63
2022-08-22T05:20:49.731Z,96708.70
2022-08-22T05:23:24.885Z,96705.23
2022-08-22T05:25:55.242Z,96707.52
2022-08-22T05:28:26.623Z,96708.47
2022-08-22T05:30:54.876Z,96705.10
2022-08-22T05:33:30.280Z,96706.04
2022-08-22T05:36:04.505Z,96706.65
2022-08-22T05:38:34.963Z,96709.30
2022-08-22T05:41:08.830Z,96712.35
2022-08-22T05:43:41.616Z,96709.74
2022-08-22T05:46:16.139Z,96713.02
2022-08-22T05:48:47.081Z,96712.23
2022-08-22T05:51:21.760Z,96711.29
2022-08-22T05:53:51.271Z,96711.27
2022-08-22T05:56:28.292Z,96712.36
2022-08-22T05:59:02.854Z,96710.53
2022-08-22T06:01:43.063Z,96712.33
2022-08-22T06:04:11.860Z,96714.19
2022-08-22T06:06:46.676Z,96714.46
2022-08-22T06:09:17.632Z,96711.58
2022-08-22T06:11:51.947Z,96711.61
2022-08-22T06:14:42.371Z,96708.23
2022-08-22T06:17:19.093Z,96708.60
2022-08-22T06:19:49.661Z,96711.14
2022-08-22T06:22:20.800Z,96713.59
2022-08-22T06:24:50.222Z,96710.36
2022-08-22T06:27:21.553Z,96711.23
2022-08-22T06:29:53.239Z,96713.55
2022-08-22T06:32:31.532Z,96714.87
2022-08-22T06:35:55.930Z,96719.30
2022-08-22T06:38:28.534Z,96715.31
2022-08-22T06:40:58.196Z,96719.09
2022-08-22T06:43:37.088Z,96719.47
2022-08-22T06:46:06.924Z,96728.18
2022-08-22T06:48:36.024Z,96733.96
2022-08-22T06:51:06.902Z,96735.34
2022-08-22T06:53:42.377Z,96733.16
2022-08-22T06:56:24.586Z,96731.52
2022-08-22T06:58:54.654Z,96730.44
2022-08-22T07:01:33.223Z,96730.16
2022-08-22T07:04:10.636Z,96727.79
2022-08-22T07:06:41.612Z,96733.40
2022-08-22T07:09:29.925Z,96732.56
2022-08-22T07:12:00.362Z,96734.60
2022-08-22T07:14:49.598Z,96732.84
2022-08-22T07:17:25.428Z,96734.88
2022-08-22T07:19:59.641Z,96734.54
2022-08-22T07:22:30.575Z,96735.06
2022-08-22T07:25:02.820Z,96731.60
2022-08-22T07:27:38.663Z,96728.83
2022-08-22T07:30:10.747Z,96736.13
2022-08-22T07:32:44.969Z,96737.11
2022-08-22T07:35:18.892Z,96737.05
2022-08-22T07:37:53.003Z,96736.34
2022-08-22T07:40:27.504Z,96734.80
2022-08-22T07:43:07.586Z,96731.17
2022-08-22T07:45:51.482Z,96731.82
2022-08-22T07:48:29.483Z,96727.52
2022-08-22T07:51:01.121Z,96725.58
2022-08-22T07:53:38.254Z,96727.62
2022-08-22T07:56:07.464Z,96727.89
2022-08-22T07:58:39.520Z,96730.95
2022-08-22T08:01:15.392Z,96729.46
2022-08-22T08:03:47.556Z,96730.27
2022-08-22T08:06:15.412Z,96727.92
2022-08-22T08:08:44.360Z,96727.52
2022-08-22T08:11:14.872Z,96721.79
2022-08-22T08:13:45.209Z,96722.75
2022-08-22T08:16:17.989Z,96720.26
2022-08-22T08:18:48.408Z,96718.80
2022-08-22T08:21:25.814Z,96720.86
2022-08-22T08:23:55.110Z,96722.86
2022-08-22T08:26:31.207Z,96722.93
2022-08-22T08:28:59.894Z,96726.61
2022-08-22T08:31:32.024Z,96718.84
2022-08-22T08:34:05.801Z,96715.00
2022-08-22T08:36:33.821Z,96721.28
2022-08-22T08:39:20.036Z,96718.52
2022-08-22T08:41:50.585Z,96715.23
2022-08-22T08:44:42.603Z,96716.22
2022-08-22T08:47:29.306Z,96718.33
2022-08-22T08:50:03.252Z,96720.30
2022-08-22T08:52:52.854Z,96718.15
2022-08-22T08:55:33.060Z,96721.39
2022-08-22T08:58:10.900Z,96722.44
2022-08-22T09:00:42.172Z,96720.48
2022-08-22T09:03:10.834Z,96719.34
2022-08-22T09:06:02.458Z,96718.88
2022-08-22T09:08:46.198Z,96717.64
2022-08-22T09:11:33.949Z,96718.06
2022-08-22T09:14:21.491Z,96716.38
2022-08-22T09:16:52.614Z,96713.48
2022-08-22T09:19:27.437Z,96716.69
2022-08-22T09:22:14.200Z,96716.02
2022-08-22T09:24:45.769Z,96714.92
2022-08-22T09:27:17.339Z,96716.45
2022-08-22T09:29:59.733Z,96714.18
2022-08-22T09:32:34.430Z,96716.23
2022-08-22T09:35:08.185Z,96713.21
2022-08-22T09:37:44.695Z,96715.73
2022-08-22T09:40:29.447Z,96713.12
2022-08-22T09:43:19.846Z,96712.66
2022-08-22T09:45:55.865Z,96709.71
2022-08-22T09:48:35.726Z,96706.23
2022-08-22T09:51:32.396Z,96697.12
2022-08-22T09:54:15.330Z,96694.84
2022-08-22T09:56:49.640Z,96694.07
2022-08-22T09:59:22.449Z,96688.85
2022-08-22T10:01:56.216Z,96689.52
2022-08-22T10:04:37.565Z,96692.72
2022-08-22T10:07:26.148Z,96688.14
2022-08-22T10:10:13.884Z,96687.58
2022-08-22T10:12:54.851Z,96687.61
2022-08-22T10:15:37.681Z,96690.95
2022-08-22T10:18:11.110Z,96689.13
2022-08-22T10:20:45.904Z,96692.69
2022-08-22T10:23:35.050Z,96695.67
2022-08-22T10:26:25.568Z,96699.54
2022-08-22T10:28:56.521Z,96694.39
2022-08-22T10:31:34.160Z,96694.42
2022-08-22T10:34:09.760Z,96695.06
2022-08-22T10:36:56.343Z,96691.51
2022-08-22T10:39:32.613Z,96684.98
2022-08-22T10:42:23.085Z,96679.88
2022-08-22T10:44:55.212Z,96675.71
2022-08-22T10:47:29.773Z,96672.84
2022-08-22T10:50:03.305Z,96677.98
2022-08-22T10:52:46.021Z,96672.81
2022-08-22T10:55:17.671Z,96670.09
2022-08-22T10:58:09.104Z,96669.20
2022-08-22T11:00:46.375Z,96665.16
2022-08-22T11:03:21.841Z,96663.56
2022-08-22T11:05:53.454Z,96663.02
2022-08-22T11:08:34.703Z,96659.89
2022-08-22T11:11:21.333Z,96656.94
2022-08-22T11:14:01.474Z,96658.13
2022-08-22T11:16:55.370Z,96659.91
2022-08-22T11:19:23.396Z,96662.39
2022-08-22T11:22:03.878Z,96660.06
2022-08-22T11:24:35.625Z,96659.56
2022-08-22T11:27:21.088Z,96655.11
2022-08-22T11:30:02.306Z,96652.83
2022-08-22T11:32:36.677Z,96654.72
2022-08-22T11:35:23.039Z,96654.16
2022-08-22T11:37:51.270Z,96652.80
2022-08-22T11:40:27.731Z,96645.27
2022-08-22T11:43:03.092Z,96644.19
2022-08-22T11:45:37.191Z,96640.99
2022-08-22T11:48:23.649Z,96639.90
2022-08-22T11:51:13.460Z,96630.60
2022-08-22T11:53:46.473Z,96628.41
2022-08-22T11:56:23.733Z,96629.86
2022-08-22T11:58:52.266Z,96620.44
2022-08-22T12:01:23.835Z,96619.25
2022-08-22T12:03:58.265Z,96613.47
2022-08-22T12:06:29.693Z,96611.08
2022-08-22T12:09:00.613Z,96615.25
2022-08-22T12:11:51.593Z,96612.64
2022-08-22T12:14:21.563Z,96614.06
2022-08-22T12:16:55.362Z,96603.27
2022-08-22T12:19:34.187Z,96605.02
2022-08-22T12:22:20.914Z,96598.17
2022-08-22T12:25:07.900Z,96594.31
2022-08-22T12:27:55.096Z,96592.42
2022-08-22T12:30:38.669Z,96599.52
2022-08-22T12:33:26.712Z,96603.30
2022-08-22T12:35:54.687Z,96596.27
2022-08-22T12:38:43.068Z,96596.14
2022-08-22T12:41:28.391Z,96589.43
2022-08-22T12:44:05.455Z,96589.10
2022-08-22T12:46:48.773Z,96594.46
2022-08-22T12:49:17.504Z,96597.86
2022-08-22T12:51:45.530Z,96598.77
2022-08-22T12:54:26.837Z,96596.06
2022-08-22T12:56:55.246Z,96593.89
2022-08-22T12:59:26.280Z,96601.09
2022-08-22T13:01:56.789Z,96599.45
2022-08-22T13:04:34.320Z,96604.48
2022-08-22T13:07:17.405Z,96609.77
2022-08-22T13:09:50.037Z,96610.29
2022-08-22T13:12:32.721Z,96609.08
2022-08-22T13:15:20.503Z,96608.14
2022-08-22T13:17:53.894Z,96604.89
2022-08-22T13:20:27.965Z,96599.04
2022-08-22T13:22:56.431Z,96596.58
2022-08-22T13:25:26.686Z,96597.95
2022-08-22T13:27:59.140Z,96599.43
2022-08-22T13:30:30.372Z,96598.77
2022-08-22T13:33:15.605Z,96601.85
2022-08-22T13:35:51.679Z,96609.88
2022-08-22T13:38:27.257Z,96609.29
2022-08-22T13:40:57.125Z,96610.19
2022-08-22T13:43:28.536Z,96610.52
2022-08-22T13:46:01.986Z,96610.48
2022-08-22T13:48:46.753Z,96619.48
2022-08-22T13:51:19.073Z,96625.78
2022-08-22T13:54:01.022Z,96625.88
2022-08-22T13:56:35.541Z,96621.70
2022-08-22T13:59:05.591Z,96620.11
2022-08-22T14:02:00.160Z,96617.08
2022-08-22T14:04:36.739Z,96620.06
2022-08-22T14:07:04.745Z,96618.23
2022-08-22T14:09:54.369Z,96618.40
2022-08-22T14:12:28.696Z,96615.46
2022-08-22T14:15:03.797Z,96620.20
2022-08-22T14:17:34.448Z,96617.64
2022-08-22T14:20:14.503Z,96616.17
2022-08-22T14:23:04.020Z,96612.09
2022-08-22T14:25:37.673Z,96610.83
2022-08-22T14:28:09.744Z,96610.11
2022-08-22T14:30:54.641Z,96606.21
2022-08-22T14:33:35.469Z,96599.71
2022-08-22T14:36:11.823Z,96596.61
2022-08-22T14:38:46.244Z,96596.67
2022-08-22T14:41:17.614Z,96595.91
2022-08-22T14:43:57.055Z,96595.20
2022-08-22T14:46:27.559Z,96594.13
2022-08-22T14:49:10.693Z,96598.88
2022-08-22T14:51:46.640Z,96599.47
2022-08-22T14:54:22.289Z,96598.29
2022-08-22T14:56:52.233Z,96598.93
2022-08-22T14:59:43.368Z,96598.60
2022-08-22T15:02:16.096Z,96599.89
2022-08-22T15:04:46.231Z,96601.13
2022-08-22T15:07:29.895Z,96601.45
2022-08-22T15:10:03.170Z,96603.96
2022-08-22T15:12:45.186Z,96606.08
2022-08-22T15:15:26.673Z,96605.42
2022-08-22T15:17:55.228Z,96605.89
2022-08-22T15:20:34.115Z,96607.05
2022-08-22T15:23:24.591Z,96612.82
2022-08-22T15:26:01.209Z,96618.84
2022-08-22T15:28:33.849Z,96625.51
2022-08-22T15:31:20.754Z,96632.87
2022-08-22T15:33:49.573Z,96636.32
2022-08-22T15:36:20.331Z,96639.25
2022-08-22T15:38:48.418Z,96642.30
2022-08-22T15:41:25.336Z,96649.16
2022-08-22T15:44:33.116Z,96659.38
2022-08-22T15:47:05.268Z,96663.79
2022-08-22T15:49:48.731Z,96661.55
2022-08-22T15:52:24.431Z,96661.65
2022-08-22T15:54:53.953Z,96661.66
2022-08-22T15:57:28.344Z,96657.13
2022-08-22T15:59:58.171Z,96651.57
2022-08-22T16:03:02.003Z,96650.99
2022-08-22T16:05:54.560Z,96654.23
2022-08-22T16:08:23.351Z,96664.59
2022-08-22T16:10:55.852Z,96671.42
2022-08-22T16:13:27.095Z,96675.67
2022-08-22T16:16:00.425Z,96685.29
2022-08-22T16:18:34.252Z,96692.66
2022-08-22T16:21:22.293Z,96695.79
2022-08-22T16:23:51.053Z,96699.91
2022-08-22T16:26:20.256Z,96698.13
2022-08-22T16:29:03.276Z,96706.67
2022-08-22T16:31:34.014Z,96708.98
2022-08-22T16:34:17.027Z,96711.31
2022-08-22T16:37:03.469Z,96713.13
2022-08-22T16:39:31.573Z,96716.43
2022-08-22T16:42:14.573Z,96718.04
2022-08-22T16:44:45.953Z,96715.94
2022-08-22T16:47:16.503Z,96715.45
2022-08-22T16:49:50.192Z,96713.48
2022-08-22T16:52:23.992Z,96711.91
2022-08-22T16:54:51.927Z,96713.21
2022-08-22T16:57:24.908Z,96719.33
2022-08-22T17:00:07.306Z,96724.59
2022-08-22T17:02:53.191Z,96725.55
2022-08-22T17:05:29.414Z,96729.91
2022-08-22T17:08:09.197Z,96738.44
2022-08-22T17:10:52.786Z,96736.92
2022-08-22T17:13:26.556Z,96736.64
2022-08-22T17:16:06.032Z,96733.55
2022-08-22T17:19:12.148Z,96733.50
2022-08-22T17:21:53.649Z,96743.73
2022-08-22T17:24:34.373Z,96754.72
2022-08-22T17:27:14.635Z,96766.19
2022-08-22T17:30:01.532Z,96773.84
2022-08-22T17:32:35.897Z,96783.81
2022-08-22T17:35:16.174Z,96788.98
2022-08-22T17:38:02.439Z,96788.02
2022-08-22T17:40:33.418Z,96787.30
2022-08-22T17:43:16.737Z,96791.23
2022-08-22T17:45:56.708Z,96799.61
2022-08-22T17:48:29.056Z,96806.48
2022-08-22T17:51:01.143Z,96817.45
2022-08-22T17:53:52.602Z,96826.69
2022-08-22T17:56:35.043Z,96831.21
2022-08-22T17:59:06.812Z,96837.80
2022-08-22T18:01:54.947Z,96834.45
2022-08-22T18:04:32.115Z,96829.92
2022-08-22T18:07:14.977Z,96822.12
2022-08-22T18:09:55.495Z,96817.54
2022-08-22T18:12:41.299Z,96814.06
2022-08-22T18:15:18.747Z,96804.17
2022-08-22T18:18:06.289Z,96801.13
2022-08-22T18:20:37.464Z,96800.86
2022-08-22T18:23:39.253Z,96800.58
2022-08-22T18:26:20.816Z,96799.59
2022-08-22T18:28:55.100Z,96794.28
2022-08-22T18:31:42.063Z,96792.61
2022-08-22T18:34:23.356Z,96790.11
2022-08-22T18:37:11.584Z,96786.75
2022-08-22T18:39:47.042Z,96780.25
2022-08-22T18:42:24.822Z,96779.95
2022-08-22T18:44:52.728Z,96779.52
2022-08-22T18:47:26.207Z,96783.34
2022-08-22T18:49:55.752Z,96792.48
2022-08-22T18:52:26.895Z,96800.58
2022-08-22T18:54:58.084Z,96810.66
2022-08-22T18:57:30.510Z,96819.16
2022-08-22T19:00:02.933Z,96824.60
2022-08-22T19:02:39.990Z,96827.75
2022-08-22T19:05:09.113Z,96830.05
2022-08-22T19:07:52.253Z,96836.83
2022-08-22T19:10:22.948Z,96843.13
2022-08-22T19:12:51.399Z,96843.94
2022-08-22T19:15:22.188Z,96847.32
2022-08-22T19:18:11.390Z,96850.52
2022-08-22T19:20:59.015Z,96850.45
2022-08-22T19:23:33.256Z,96854.15
2022-08-22T19:26:19.537Z,96851.71
2022-08-22T19:28:47.621Z,96855.09
2022-08-22T19:31:34.383Z,96863.11
2022-08-22T19:34:32.841Z,96863.80
2022-08-22T19:37:31.922Z,96865.45
2022-08-22T19:40:09.191Z,96864.75
2022-08-22T19:42:41.697Z,96861.98
2022-08-22T19:45:26.801Z,96862.30
2022-08-22T19:47:59.776Z,96866.68
2022-08-22T19:50:31.065Z,96871.95
2022-08-22T19:53:18.598Z,96875.32
2022-08-22T19:56:09.708Z,96871.70
2022-08-22T19:58:46.787Z,96869.66
2022-08-22T20:01:28.866Z,96867.92
2022-08-22T20:03:56.726Z,96872.02
2022-08-22T20:06:53.423Z,96881.96
2022-08-22T20:09:33.995Z,96887.30
2022-08-22T20:12:16.095Z,96888.91
2022-08-22T20:14:46.240Z,96890.69
2022-08-22T20:17:26.237Z,96896.55
2022-08-22T20:20:17.764Z,96906.34
2022-08-22T20:22:52.928Z,96913.77
2022-08-22T20:25:42.335Z,96918.62
2022-08-22T20:28:25.622Z,96926.06
2022-08-22T20:30:57.762Z,96934.35
2022-08-22T20:33:28.865Z,96933.80
2022-08-22T20:35:59.587Z,96935.04
2022-08-22T20:38:37.217Z,96935.58
2022-08-22T20:41:11.363Z,96937.34
2022-08-22T20:43:43.424Z,96937.09
2022-08-22T20:46:30.306Z,96938.02
2022-08-22T20:48:59.813Z,96939.00
2022-08-22T20:51:29.811Z,96943.90
2022-08-22T20:53:59.907Z,96945.35
2022-08-22T20:56:54.652Z,96946.19
2022-08-22T20:59:23.949Z,96938.86
2022-08-22T21:01:56.479Z,96939.42
2022-08-22T21:04:27.269Z,96936.42
2022-08-22T21:07:01.970Z,96937.48
2022-08-22T21:09:48.937Z,96937.11
2022-08-22T21:12:16.889Z,96937.48
2022-08-22T21:14:48.329Z,96938.38
2022-08-22T21:17:17.702Z,96938.73
2022-08-22T21:19:45.711Z,96935.88
2022-08-22T21:22:15.509Z,96942.75
2022-08-22T21:24:43.648Z,96939.89
2022-08-22T21:27:22.099Z,96938.00
2022-08-22T21:29:50.288Z,96938.75
2022-08-22T21:32:38.688Z,96938.88
2022-08-22T21:35:07.708Z,96933.91
2022-08-22T21:37:40.535Z,96927.55
2022-08-22T21:40:15.357Z,96924.86
2022-08-22T21:42:46.025Z,96923.20
2022-08-22T21:45:34.137Z,96920.04
2022-08-22T21:48:02.366Z,96920.86
2022-08-22T21:50:38.040Z,96917.08
2022-08-22T21:53:09.163Z,96919.72
2022-08-22T21:55:43.930Z,96919.45
2022-08-22T21:58:35.117Z,96918.11
2022-08-22T22:01:24.770Z,96913.39
2022-08-22T22:03:52.801Z,96909.16
2022-08-22T22:06:20.817Z,96906.08
2022-08-22T22:08:49.187Z,96899.73
2022-08-22T22:11:17.337Z,96897.98
2022-08-22T22:13:46.617Z,96896.55
2022-08-22T22:16:18.063Z,96896.21
2022-08-22T22:18:46.067Z,96896.88
2022-08-22T22:21:14.160Z,96893.73
2022-08-22T22:23:42.132Z,96890.89
2022-08-22T22:26:10.449Z,96893.91
2022-08-22T22:28:40.118Z,96891.30
2022-08-22T22:31:08.646Z,96894.18
2022-08-22T22:33:37.944Z,96895.62
2022-08-22T22:36:18.260Z,96898.24
2022-08-22T22:38:46.781Z,96896.96
2022-08-22T22:41:15.342Z,96897.50
2022-08-22T22:43:43.366Z,96902.23
2022-08-22T22:46:11.247Z,96911.91
2022-08-22T22:48:39.273Z,96915.77
2022-08-22T22:51:11.444Z,96916.83
2022-08-22T22:53:43.786Z,96911.58
2022-08-22T22:56:22.383Z,96907.82
2022-08-22T22:59:00.900Z,96904.02
2022-08-22T23:01:36.345Z,96897.02
2022-08-22T23:04:05.981Z,96896.75
2022-08-22T23:06:34.679Z,96899.75
2022-08-22T23:09:02.530Z,96901.52
2022-08-22T23:11:31.248Z,96899.15
2022-08-22T23:14:01.370Z,96898.96
2022-08-22T23:16:32.941Z,96896.67
2022-08-22T23:19:08.445Z,96896.48
2022-08-22T23:21:36.773Z,96895.23
2022-08-22T23:24:05.449Z,96894.24
2022-08-22T23:26:33.764Z,96894.94
2022-08-22T23:29:04.748Z,96894.45
2022-08-22T23:31:34.562Z,96894.64
2022-08-22T23:34:05.022Z,96891.95
2022-08-22T23:36:32.958Z,96885.29
2022-08-22T23:39:01.236Z,96883.75
2022-08-22T23:41:29.208Z,96881.91
2022-08-22T23:43:57.060Z,96883.49
2022-08-22T23:46:25.860Z,96884.14
2022-08-22T23:48:54.650Z,96883.79
2022-08-22T23:51:24.035Z,96891.48
2022-08-22T23:53:52.721Z,96897.46
2022-08-22T23:56:26.852Z,96896.25
2022-08-22T23:58:55.163Z,96893.25
